Airfield :
LOGIN :

Register | Disclaimer

   EN    FR    IT 

 










Legend :    VFR   Marginal VFR   IFR   Intensive IFR   Very Intensive IFR
Visi :
Ceiling :
>= 8 km
>= 3000ft
5 to 8 km
1000 to 3000 ft
1500m to 5 km
500 to 1000 ft
800 to 1500m
200 to 500 ft
< 800m
< 200 ft
Symbols :   Thunderstorms  Fog  Heavy snow  Heavy precipitations  Wind > 20 kt
SIGMETs :     Misc.  Thunderstorms  Icing  Turbulence  Mountain Waves  Volcanic Ashes







- Airport Elevation : 20 ft
- IATA code : OBN
- Download approach charts


EGEO - Oban

CURRENT METAR :
  • 221150Z 31013KT 9999 FEW024 BKN035 12/08 Q1033

EXPIRED METARs :
  • 221120Z 30010KT 9999 FEW022 BKN035 13/09 Q1033
  • 221050Z 30005KT 9999 FEW022 BKN035 13/07 Q1033
  • 221020Z 29008KT 9999 FEW022 SCT036 13/08 Q1033
  • 220950Z 30009KT 9999 FEW027 SCT036 13/09 Q1033

TAF TAF EGEO
Valid from the 22 at 12:00 until the 22 at 17:00 UTC


221058Z 2212/2217 29012KT 9999 SCT028
No reported NOTAMs for that airfield.



MET'MAP, your aeronautical weather chart ! - Copyright ORBIFLY December 2007 - Disclaimer

ORBIFLY MET'MAP TEAM :

Programming & Development : Alexandra Zaïnal
Concept & Development : Baudouin d'Aumeries
Co-Development & Prog : Marc-Olivier Méhu
Technical & hardware support : Manuel Goepfert

Contact : metmap@orbifly.com




SOURCES & CREDITS :

   NOAA